Time;durP1;ratioP1;P1;durP2;ratioP2;P2;SDS_P1;SDS_P2;PMS_P1;PMS_P2;Temp;Humidity;BMP_temperature;BMP_pressure;BME280_temperature;BME280_humidity;BME280_pressure;Samples;Min_cycle;Max_cycle;Signal;HPM_P1;HPM_P2
2023/01/28 00:00:48;;;;;;;;;;;;;;;8.02;53.44;101712.47;4982502;28;6788;-74
2023/01/28 00:03:14;;;;;;;;;;;;;;;8.03;53.63;101712.56;4954272;28;6965;-74
2023/01/28 00:05:40;;;;;;;;;;;;;;;8.02;52.83;101715.03;4993757;28;6796;-74
2023/01/28 00:08:07;;;;;;;;;;;;;;;8.01;53.43;101715.75;4980141;28;6780;-74
2023/01/28 00:10:32;;;;;;;;;;;;;;;8.00;53.83;101703.78;4981622;28;6871;-74
2023/01/28 00:12:58;;;;;;;;;;;;;;;7.99;52.55;101705.44;4966161;28;7293;-74
2023/01/28 00:15:24;;;;;;;;;;;;;;;7.99;53.68;101702.91;4980503;28;6926;-74
2023/01/28 00:17:50;;;;;;;;;;;;;;;7.99;52.70;101708.00;4994812;28;6774;-73
2023/01/28 00:20:16;;;;;;;;;;;;;;;7.97;52.75;101707.00;4997451;28;6995;-73
2023/01/28 00:22:47;;;;;;;;;;;;;;;7.94;52.82;101701.63;4979906;28;6922;-73
2023/01/28 00:25:13;;;;;;;;;;;;;;;7.91;52.94;101704.81;4985342;28;6976;-73
2023/01/28 00:27:41;;;;;;;;;;;;;;;7.89;53.81;101705.50;4968006;28;7270;-74
2023/01/28 00:30:08;;;;;;;;;;;;;;;7.89;53.73;101695.28;4994001;28;7896;-73
2023/01/28 00:32:33;;;;;;;;;;;;;;;7.89;52.89;101695.28;4994728;28;7014;-73
2023/01/28 00:34:59;;;;;;;;;;;;;;;7.88;52.89;101691.81;5000429;28;6844;-73
2023/01/28 00:37:25;;;;;;;;;;;;;;;7.87;53.01;101690.03;4981401;28;6926;-74
2023/01/28 00:39:50;;;;;;;;;;;;;;;7.87;53.15;101689.13;4983882;28;7701;-73
2023/01/28 00:42:17;;;;;;;;;;;;;;;7.86;52.96;101688.25;4974198;28;7076;-73
2023/01/28 00:44:43;;;;;;;;;;;;;;;7.86;53.20;101688.25;5002221;28;6988;-73
2023/01/28 00:47:08;;;;;;;;;;;;;;;7.88;53.92;101690.94;4976965;28;6796;-73
2023/01/28 00:49:34;;;;;;;;;;;;;;;7.87;52.85;101690.03;4992114;28;8296;-73
2023/01/28 00:51:59;;;;;;;;;;;;;;;7.86;53.14;101688.25;4985149;28;6776;-73
2023/01/28 00:54:25;;;;;;;;;;;;;;;7.87;52.95;101694.25;4992931;28;6780;-73
2023/01/28 00:56:52;;;;;;;;;;;;;;;7.86;52.86;101693.38;4997391;28;6940;-73
2023/01/28 00:59:18;;;;;;;;;;;;;;;7.85;53.14;101686.47;4997796;28;7440;-73
2023/01/28 01:01:43;;;;;;;;;;;;;;;7.85;54.13;101690.69;4974783;28;6787;-73
2023/01/28 01:04:09;;;;;;;;;;;;;;;7.83;53.88;101689.66;4989466;28;6811;-74
2023/01/28 01:06:39;;;;;;;;;;;;;;;7.81;52.98;101684.44;4966427;28;6959;-73
2023/01/28 01:09:09;;;;;;;;;;;;;;;7.80;53.22;101687.75;4977258;28;10391;-73
2023/01/28 01:11:35;;;;;;;;;;;;;;;7.77;54.20;101683.31;4974890;28;7268;-73
2023/01/28 01:14:04;;;;;;;;;;;;;;;7.76;53.45;101680.63;4994163;28;7854;-73
2023/01/28 01:16:32;;;;;;;;;;;;;;;7.75;53.31;101682.28;4980388;28;7257;-74
2023/01/28 01:18:59;;;;;;;;;;;;;;;7.75;53.50;101699.28;4980446;28;6930;-74
2023/01/28 01:21:28;;;;;;;;;;;;;;;7.73;53.10;101695.72;4991694;28;6780;-74
2023/01/28 01:23:54;;;;;;;;;;;;;;;7.71;53.96;101703.25;4976159;28;7051;-73
2023/01/28 01:26:20;;;;;;;;;;;;;;;7.70;53.80;101700.56;4980662;28;7015;-73
2023/01/28 01:28:46;;;;;;;;;;;;;;;7.71;53.87;101702.34;4983550;28;6947;-73
2023/01/28 01:31:19;;;;;;;;;;;;;;;7.71;53.49;101707.44;4979330;28;6976;-73
2023/01/28 01:33:47;;;;;;;;;;;;;;;7.71;53.75;101704.88;4998658;28;6791;-73
2023/01/28 01:36:16;;;;;;;;;;;;;;;7.70;54.55;101701.47;4987783;28;6820;-73
2023/01/28 01:38:42;;;;;;;;;;;;;;;7.71;54.00;101708.34;4987790;28;6808;-74
2023/01/28 01:41:24;;;;;;;;;;;;;;;7.69;53.65;101703.88;4995345;28;7002;-73
2023/01/28 01:43:56;;;;;;;;;;;;;;;7.64;53.65;101700.94;4993115;28;6967;-73
2023/01/28 01:46:48;;;;;;;;;;;;;;;7.62;54.37;101702.50;4977042;28;6792;-73
2023/01/28 01:49:20;;;;;;;;;;;;;;;7.59;53.54;101698.03;4996724;28;7114;-73
2023/01/28 01:51:53;;;;;;;;;;;;;;;7.59;54.26;101709.91;4997112;28;7443;-73
2023/01/28 01:54:23;;;;;;;;;;;;;;;7.58;53.39;101706.47;4998168;28;6796;-73
2023/01/28 01:56:51;;;;;;;;;;;;;;;7.59;54.33;101713.34;4991934;28;6890;-73
2023/01/28 01:59:28;;;;;;;;;;;;;;;7.59;54.26;101710.78;4972964;28;6800;-73
2023/01/28 02:01:54;;;;;;;;;;;;;;;7.60;54.27;101716.81;4973952;28;6812;-73
2023/01/28 02:04:34;;;;;;;;;;;;;;;7.60;53.33;101719.34;4986997;28;6780;-73
2023/01/28 02:07:01;;;;;;;;;;;;;;;7.58;53.62;101718.31;4980187;28;6816;-73
2023/01/28 02:09:30;;;;;;;;;;;;;;;7.56;53.43;101710.56;4989568;28;6792;-73
2023/01/28 02:12:04;;;;;;;;;;;;;;;7.58;54.48;101715.75;4995665;28;6792;-74
2023/01/28 02:14:37;;;;;;;;;;;;;;;7.58;53.70;101710.66;4989736;28;7130;-73
2023/01/28 02:17:04;;;;;;;;;;;;;;;7.58;53.24;101713.19;4968709;28;6832;-74
2023/01/28 02:19:45;;;;;;;;;;;;;;;7.59;53.85;101712.47;4977646;28;7117;-73
2023/01/28 02:22:21;;;;;;;;;;;;;;;7.57;54.11;101724.19;4983331;28;10204;-73
2023/01/28 02:25:15;;;;;;;;;;;;;;;7.56;54.44;101720.75;4989147;28;7018;-73
2023/01/28 02:28:08;;;;;;;;;;;;;;;7.55;54.01;101715.53;4994289;28;6819;-73
2023/01/28 02:31:03;;;;;;;;;;;;;;;7.53;53.80;101717.06;4996565;28;7197;-73
2023/01/28 02:34:00;;;;;;;;;;;;;;;7.55;53.56;101715.53;4982435;28;6846;-74
2023/01/28 02:36:45;;;;;;;;;;;;;;;7.55;53.24;101721.53;4989407;28;7279;-74
2023/01/28 02:39:41;;;;;;;;;;;;;;;7.55;53.68;101721.53;4991530;28;6816;-73
2023/01/28 02:42:18;;;;;;;;;;;;;;;7.57;53.55;101726.72;4995853;28;6824;-73
2023/01/28 02:44:44;;;;;;;;;;;;;;;7.56;54.49;101722.41;4987947;28;7138;-74
2023/01/28 02:50:01;;;;;;;;;;;;;;;7.54;53.29;101719.75;4979424;28;6812;-73
2023/01/28 02:53:47;;;;;;;;;;;;;;;7.55;54.10;101728.28;4966269;28;6968;-73
2023/01/28 02:56:14;;;;;;;;;;;;;;;7.48;53.29;101727.78;4979693;28;6898;-73
2023/01/28 02:59:30;;;;;;;;;;;;;;;7.45;54.33;101732.63;4995646;28;6848;-73
2023/01/28 03:02:13;;;;;;;;;;;;;;;7.41;53.42;101729.69;4976835;28;7049;-73
2023/01/28 03:05:21;;;;;;;;;;;;;;;7.39;53.67;101731.22;4988245;28;7154;-74
2023/01/28 03:07:48;;;;;;;;;;;;;;;7.38;53.41;101742.22;4976803;28;6812;-74
2023/01/28 03:10:21;;;;;;;;;;;;;;;7.36;53.17;101742.97;4985871;28;6892;-74
2023/01/28 03:39:01;;;;;;;;;;;;;;;6.99;53.40;101747.56;5000788;28;6820;-74
2023/01/28 03:41:26;;;;;;;;;;;;;;;6.98;53.36;101749.97;4998890;28;7247;-73
2023/01/28 03:47:33;;;;;;;;;;;;;;;6.88;53.14;101749.19;4992135;28;7091;-74
2023/01/28 03:49:59;;;;;;;;;;;;;;;6.92;52.98;101752.91;4966831;28;7273;-74
2023/01/28 03:52:31;;;;;;;;;;;;;;;6.92;52.97;101753.81;4980877;28;7200;-74
2023/01/28 03:54:56;;;;;;;;;;;;;;;6.93;53.44;101749.56;4995364;28;6796;-74
2023/01/28 03:57:26;;;;;;;;;;;;;;;6.95;53.40;101748.03;4999473;28;7811;-74
2023/01/28 03:59:52;;;;;;;;;;;;;;;6.95;52.86;101748.03;4983526;28;6788;-74
2023/01/28 04:02:20;;;;;;;;;;;;;;;6.94;53.41;101759.91;4975867;28;8666;-74
2023/01/28 04:04:46;;;;;;;;;;;;;;;6.93;52.86;101757.22;5003722;28;6967;-74
2023/01/28 04:07:14;;;;;;;;;;;;;;;6.92;52.94;101761.44;4992533;28;6847;-74
2023/01/28 04:09:41;;;;;;;;;;;;;;;6.91;53.29;101758.75;4987515;28;6816;-74
2023/01/28 04:12:08;;;;;;;;;;;;;;;6.89;52.61;101758.63;4974826;28;7225;-74
2023/01/28 04:14:34;;;;;;;;;;;;;;;6.86;53.39;101767.69;4975956;28;7474;-74
2023/01/28 04:16:59;;;;;;;;;;;;;;;6.83;52.62;101763.22;4980871;28;6776;-74
2023/01/28 04:19:26;;;;;;;;;;;;;;;6.81;52.35;101757.97;4999204;28;6963;-73
2023/01/28 04:21:55;;;;;;;;;;;;;;;6.80;52.44;101762.94;4993047;28;7022;-73
2023/01/28 04:24:22;;;;;;;;;;;;;;;6.77;52.82;101763.59;4988839;28;6804;-74
2023/01/28 04:26:48;;;;;;;;;;;;;;;6.72;52.45;101772.47;4978788;28;7042;-74
2023/01/28 04:29:14;;;;;;;;;;;;;;;6.66;52.28;101767.75;4993338;28;6827;-73
2023/01/28 04:31:39;;;;;;;;;;;;;;;6.64;52.35;101773.47;4982020;28;6780;-73
2023/01/28 04:34:05;;;;;;;;;;;;;;;6.62;52.14;101775.91;5004492;28;7005;-73
2023/01/28 04:36:31;;;;;;;;;;;;;;;6.62;52.46;101773.38;4983999;28;6784;-74
2023/01/28 04:38:56;;;;;;;;;;;;;;;6.62;52.59;101786.09;4977510;28;6995;-73
2023/01/28 04:41:22;;;;;;;;;;;;;;;6.62;52.16;101785.19;4976864;28;6788;-73
2023/01/28 04:43:48;;;;;;;;;;;;;;;6.62;52.40;101782.66;4974032;28;6799;-74
2023/01/28 04:46:15;;;;;;;;;;;;;;;6.62;52.11;101785.19;4986217;28;6948;-74
2023/01/28 04:48:42;;;;;;;;;;;;;;;6.60;52.43;101785.06;4992016;28;6862;-74
2023/01/28 04:51:07;;;;;;;;;;;;;;;6.60;52.24;101791.81;4994313;28;6992;-73
2023/01/28 04:53:33;;;;;;;;;;;;;;;6.60;52.54;101787.59;4985366;28;6788;-73
2023/01/28 04:55:59;;;;;;;;;;;;;;;6.61;52.05;101788.50;5003122;28;6788;-73
2023/01/28 04:58:25;;;;;;;;;;;;;;;6.61;52.37;101791.06;5002814;28;6868;-73
2023/01/28 05:00:58;;;;;;;;;;;;;;;6.59;52.37;101784.94;4971761;28;7336;-73
2023/01/28 05:03:24;;;;;;;;;;;;;;;6.58;52.42;101789.13;4981746;28;6866;-73
2023/01/28 05:05:50;;;;;;;;;;;;;;;6.57;52.37;101787.34;4981135;28;6840;-74
2023/01/28 05:08:17;;;;;;;;;;;;;;;6.56;52.43;101785.56;4976775;28;6845;-73
2023/01/28 05:10:43;;;;;;;;;;;;;;;6.56;52.36;101784.66;4983110;28;6796;-73
2023/01/28 05:13:08;;;;;;;;;;;;;;;6.53;51.96;101785.31;4979777;28;7929;-73
2023/01/28 05:15:34;;;;;;;;;;;;;;;6.52;52.18;101783.53;4976496;28;7773;-74
2023/01/28 05:18:00;;;;;;;;;;;;;;;6.48;51.97;101777.25;4975992;28;6780;-73
2023/01/28 05:20:25;;;;;;;;;;;;;;;6.52;51.92;101784.41;4975140;28;6828;-73
2023/01/28 05:22:51;;;;;;;;;;;;;;;6.50;51.82;101783.38;4971747;28;6973;-73
2023/01/28 05:25:17;;;;;;;;;;;;;;;6.50;52.05;101783.38;4977459;28;7178;-74
2023/01/28 05:27:42;;;;;;;;;;;;;;;6.50;52.46;101785.00;4968220;28;8898;-73
2023/01/28 05:30:09;;;;;;;;;;;;;;;6.49;52.22;101779.06;4971257;28;7064;-73
2023/01/28 05:32:34;;;;;;;;;;;;;;;6.47;52.29;101788.22;4975089;28;11249;-73
2023/01/28 05:35:00;;;;;;;;;;;;;;;6.44;51.86;101787.94;4971919;28;7812;-73
2023/01/28 05:37:26;;;;;;;;;;;;;;;6.44;51.92;101794.69;4965499;28;6904;-73
2023/01/28 05:39:52;;;;;;;;;;;;;;;6.39;52.13;101790.06;4973771;28;6771;-73
2023/01/28 05:42:19;;;;;;;;;;;;;;;6.40;52.09;101798.63;4971886;28;7913;-73
2023/01/28 05:44:45;;;;;;;;;;;;;;;6.40;52.11;101790.97;4965400;28;6863;-74
2023/01/28 05:47:11;;;;;;;;;;;;;;;6.39;51.65;101794.28;4972673;28;7020;-73
2023/01/28 05:49:37;;;;;;;;;;;;;;;6.37;52.16;101804.34;4971226;28;6947;-73
2023/01/28 05:52:02;;;;;;;;;;;;;;;6.36;51.73;101802.56;4976803;28;8226;-73
2023/01/28 05:54:28;;;;;;;;;;;;;;;6.36;51.73;101806.75;4977962;28;6796;-73
2023/01/28 05:56:55;;;;;;;;;;;;;;;6.35;51.64;101810.97;4978168;28;6846;-73
2023/01/28 05:59:23;;;;;;;;;;;;;;;6.33;52.08;101815.03;4992940;28;7250;-74
2023/01/28 06:01:49;;;;;;;;;;;;;;;6.33;51.80;101816.66;4975596;28;6938;-74
2023/01/28 06:04:17;;;;;;;;;;;;;;;6.34;52.01;101826.09;4973955;28;6771;-73
2023/01/28 06:06:44;;;;;;;;;;;;;;;6.34;51.98;101823.53;4983348;28;6847;-73
2023/01/28 06:09:10;;;;;;;;;;;;;;;6.35;52.20;101826.22;4980574;28;7186;-73
2023/01/28 06:11:36;;;;;;;;;;;;;;;6.35;52.02;101830.41;4968340;28;6780;-74
2023/01/28 06:14:01;;;;;;;;;;;;;;;6.35;51.47;101835.50;4976295;28;7457;-73
2023/01/28 06:16:27;;;;;;;;;;;;;;;6.35;51.83;101821.16;4980159;28;6795;-74
2023/01/28 06:18:53;;;;;;;;;;;;;;;6.36;51.82;101827.09;4974074;28;7024;-73
2023/01/28 06:21:18;;;;;;;;;;;;;;;6.36;51.67;101822.03;4966260;28;6792;-73
2023/01/28 06:23:44;;;;;;;;;;;;;;;6.36;51.76;101824.56;4977425;28;6772;-73
2023/01/28 06:26:09;;;;;;;;;;;;;;;6.35;52.00;101820.22;4983046;28;6764;-73
2023/01/28 06:28:35;;;;;;;;;;;;;;;6.34;51.89;101818.44;4959602;28;6970;-73
2023/01/28 06:31:01;;;;;;;;;;;;;;;6.33;51.85;101824.31;4991827;28;7173;-73
2023/01/28 06:33:28;;;;;;;;;;;;;;;6.34;51.61;101824.44;4998251;28;6844;-73
2023/01/28 06:35:54;;;;;;;;;;;;;;;6.34;51.66;101821.00;4987558;28;6835;-73
2023/01/28 06:38:19;;;;;;;;;;;;;;;6.34;51.01;101836.28;4967605;28;8231;-73
2023/01/28 06:40:51;;;;;;;;;;;;;;;6.34;51.09;101843.91;4975512;28;6852;-73
2023/01/28 06:43:17;;;;;;;;;;;;;;;6.31;50.97;101833.47;4986584;28;6926;-73
2023/01/28 06:45:42;;;;;;;;;;;;;;;6.29;50.73;101837.53;4978958;28;6973;-73
2023/01/28 06:48:08;;;;;;;;;;;;;;;6.27;50.57;101828.84;4978513;28;7004;-73
2023/01/28 06:50:34;;;;;;;;;;;;;;;6.25;50.67;101836.38;4984122;28;6768;-73
2023/01/28 06:52:59;;;;;;;;;;;;;;;6.22;50.84;101836.06;4982981;28;6771;-73
2023/01/28 06:55:25;;;;;;;;;;;;;;;6.19;50.83;101839.28;4974146;28;6772;-73
2023/01/28 06:57:50;;;;;;;;;;;;;;;6.21;50.46;101850.47;4975921;28;7931;-73
2023/01/28 07:00:17;;;;;;;;;;;;;;;6.22;50.57;101851.34;4968392;28;7305;-73
2023/01/28 07:02:42;;;;;;;;;;;;;;;6.21;50.45;101841.94;4965541;28;7061;-73
2023/01/28 07:05:09;;;;;;;;;;;;;;;6.19;50.55;101841.81;4982621;28;6957;-73
2023/01/28 07:07:34;;;;;;;;;;;;;;;6.20;50.40;101851.25;4980276;28;7092;-73
2023/01/28 07:10:00;;;;;;;;;;;;;;;6.20;50.42;101851.25;4983427;28;6775;-73
2023/01/28 07:12:26;;;;;;;;;;;;;;;6.19;50.30;101854.53;4995325;28;7005;-73
2023/01/28 07:14:51;;;;;;;;;;;;;;;6.17;50.06;101838.22;4982876;28;6974;-73
2023/01/28 07:17:17;;;;;;;;;;;;;;;6.16;50.26;101838.09;4983268;28;6787;-73
2023/01/28 07:19:42;;;;;;;;;;;;;;;6.14;49.98;101840.50;4968553;28;7227;-73
2023/01/28 07:22:08;;;;;;;;;;;;;;;6.13;50.10;101842.91;4980138;28;6784;-73
2023/01/28 07:24:34;;;;;;;;;;;;;;;6.11;50.00;101842.78;4955090;28;7091;-73
2023/01/28 07:26:59;;;;;;;;;;;;;;;6.09;49.78;101847.72;4965806;28;7003;-73
2023/01/28 07:29:25;;;;;;;;;;;;;;;6.08;49.54;101845.03;4974043;28;6983;-73
2023/01/28 07:31:51;;;;;;;;;;;;;;;6.07;49.39;101843.25;4968606;28;7420;-73
2023/01/28 07:34:16;;;;;;;;;;;;;;;6.08;49.58;101852.66;4976001;28;6790;-73
2023/01/28 07:36:42;;;;;;;;;;;;;;;6.09;49.46;101857.03;4973075;28;6945;-73
2023/01/28 07:39:08;;;;;;;;;;;;;;;6.08;49.18;101843.41;4982787;28;7173;-73
2023/01/28 07:41:33;;;;;;;;;;;;;;;6.09;49.24;101844.31;4981655;28;6780;-73
2023/01/28 07:43:59;;;;;;;;;;;;;;;6.09;49.50;101845.19;4983602;28;7166;-73
2023/01/28 07:46:25;;;;;;;;;;;;;;;6.08;49.47;101847.56;4960970;28;6956;-73
2023/01/28 07:48:50;;;;;;;;;;;;;;;6.10;49.03;101846.09;4994002;28;7389;-73
2023/01/28 07:51:16;;;;;;;;;;;;;;;6.10;49.11;101846.09;4979056;28;6792;-73
2023/01/28 07:53:42;;;;;;;;;;;;;;;6.12;49.14;101844.56;4981046;28;6772;-73
2023/01/28 07:56:07;;;;;;;;;;;;;;;6.12;49.28;101836.94;4974344;28;6951;-73
2023/01/28 07:58:33;;;;;;;;;;;;;;;6.12;49.31;101839.47;4979514;28;6852;-73
2023/01/28 08:01:00;;;;;;;;;;;;;;;6.14;49.45;101849.81;4973134;28;7599;-73
2023/01/28 08:03:27;;;;;;;;;;;;;;;6.15;49.19;101861.78;4978172;28;6816;-73
2023/01/28 08:05:55;;;;;;;;;;;;;;;6.15;48.88;101867.75;4981418;28;6799;-73
2023/01/28 08:08:28;;;;;;;;;;;;;;;6.14;49.20;101862.53;4981261;28;6876;-73
2023/01/28 08:10:53;;;;;;;;;;;;;;;6.14;48.59;101865.97;4975064;28;6987;-73
2023/01/28 08:13:19;;;;;;;;;;;;;;;6.13;48.83;101869.25;4989668;28;6775;-73
2023/01/28 08:15:46;;;;;;;;;;;;;;;6.12;48.86;101872.56;4969452;28;7261;-73
2023/01/28 08:18:15;;;;;;;;;;;;;;;6.13;48.91;101887.09;4980120;28;6816;-73
2023/01/28 08:20:43;;;;;;;;;;;;;;;6.15;48.74;101883.03;4977125;28;6792;-73
2023/01/28 08:23:16;;;;;;;;;;;;;;;6.17;48.75;101886.59;4979240;28;6804;-73
2023/01/28 08:25:42;;;;;;;;;;;;;;;6.20;48.94;101893.63;4984794;28;6872;-73
2023/01/28 08:28:09;;;;;;;;;;;;;;;6.23;48.72;101897.34;4982890;28;7272;-73
2023/01/28 08:30:37;;;;;;;;;;;;;;;6.24;48.75;101894.03;4980276;28;6788;-73
2023/01/28 08:33:06;;;;;;;;;;;;;;;6.27;48.43;101893.41;4983597;28;8015;-73
2023/01/28 08:35:32;;;;;;;;;;;;;;;6.28;48.43;101896.84;4997153;28;7286;-73
2023/01/28 08:38:00;;;;;;;;;;;;;;;6.28;48.62;101899.38;4981663;28;6780;-73
2023/01/28 08:40:26;;;;;;;;;;;;;;;6.29;48.57;101898.66;4972474;28;7127;-73
2023/01/28 08:42:53;;;;;;;;;;;;;;;6.30;48.50;101890.25;4976387;28;7082;-73
2023/01/28 08:45:23;;;;;;;;;;;;;;;6.33;48.50;101899.06;4975904;28;7001;-73
2023/01/28 08:47:52;;;;;;;;;;;;;;;6.37;48.11;101900.22;4981757;28;6882;-73
2023/01/28 08:50:19;;;;;;;;;;;;;;;6.40;48.72;101908.16;4967336;28;7038;-73
2023/01/28 08:52:53;;;;;;;;;;;;;;;6.45;48.42;101909.44;4969138;28;6768;-73
2023/01/28 08:55:19;;;;;;;;;;;;;;;6.48;48.36;101914.81;4982490;28;7000;-73
2023/01/28 08:57:44;;;;;;;;;;;;;;;6.52;47.83;101914.31;4980986;28;6889;-73
2023/01/28 09:00:11;;;;;;;;;;;;;;;6.56;48.57;101922.22;4982828;28;6915;-73
2023/01/28 09:02:37;;;;;;;;;;;;;;;6.57;48.39;101919.81;4985261;28;6819;-74
2023/01/28 09:05:04;;;;;;;;;;;;;;;6.57;47.93;101926.56;4986661;28;6804;-73
2023/01/28 09:07:30;;;;;;;;;;;;;;;6.55;48.29;101935.72;4984495;28;7343;-73
2023/01/28 09:09:56;;;;;;;;;;;;;;;6.53;47.96;101939.03;4983178;28;6776;-73
2023/01/28 09:12:22;;;;;;;;;;;;;;;6.54;48.01;101945.03;4966895;28;6986;-73
2023/01/28 09:14:48;;;;;;;;;;;;;;;6.53;48.25;101936.47;4985199;28;6939;-73
2023/01/28 09:17:14;;;;;;;;;;;;;;;6.53;48.09;101944.13;4985985;28;6800;-73
2023/01/28 09:19:39;;;;;;;;;;;;;;;6.55;48.06;101944.28;4984572;28;6780;-73
2023/01/28 09:22:05;;;;;;;;;;;;;;;6.53;47.82;101954.31;4985271;28;7920;-73
2023/01/28 09:24:31;;;;;;;;;;;;;;;6.50;47.60;101961.69;4981710;28;6911;-73
2023/01/28 09:26:56;;;;;;;;;;;;;;;6.48;47.95;101960.66;4978223;28;7162;-74
2023/01/28 09:29:22;;;;;;;;;;;;;;;6.45;47.55;101973.09;4982505;28;6764;-73
2023/01/28 09:31:48;;;;;;;;;;;;;;;6.44;47.70;101968.78;4983152;28;7238;-73
2023/01/28 09:34:13;;;;;;;;;;;;;;;6.44;47.57;101971.31;4964416;28;8129;-73
2023/01/28 09:36:39;;;;;;;;;;;;;;;6.44;48.19;101973.88;4981575;28;7043;-73
2023/01/28 09:39:05;;;;;;;;;;;;;;;6.43;47.65;101967.00;4985909;28;6843;-73
2023/01/28 09:42:08;;;;;;;;;;;;;;;6.41;47.59;101976.16;4982923;28;6808;-73
2023/01/28 09:44:52;;;;;;;;;;;;;;;6.38;47.45;101968.25;4985176;28;6808;-73
2023/01/28 09:47:40;;;;;;;;;;;;;;;6.37;47.44;101981.72;4986416;28;6820;-73
2023/01/28 09:50:34;;;;;;;;;;;;;;;6.37;47.18;101979.16;4984201;28;7127;-73
2023/01/28 09:53:32;;;;;;;;;;;;;;;6.35;47.13;101981.59;4984126;28;6804;-73
2023/01/28 09:56:09;;;;;;;;;;;;;;;6.33;46.89;101970.38;4979706;28;7080;-73
2023/01/28 09:58:35;;;;;;;;;;;;;;;6.34;47.03;101977.25;4968050;28;7036;-73
2023/01/28 10:01:43;;;;;;;;;;;;;;;6.39;47.22;101992.94;4980685;28;6832;-73
2023/01/28 10:04:36;;;;;;;;;;;;;;;6.42;46.90;101985.56;4976610;28;7061;-73
2023/01/28 10:07:55;;;;;;;;;;;;;;;6.41;46.46;101988.88;4983584;28;7039;-73
2023/01/28 10:10:38;;;;;;;;;;;;;;;6.37;46.65;101985.16;4914669;28;7304;-73
2023/01/28 10:13:31;;;;;;;;;;;;;;;6.38;46.67;101984.41;4982220;28;7343;-73
2023/01/28 10:16:29;;;;;;;;;;;;;;;6.37;46.32;101981.72;4982448;28;7432;-73
2023/01/28 10:19:11;;;;;;;;;;;;;;;6.39;46.38;101986.19;4984628;28;6816;-73
2023/01/28 10:21:55;;;;;;;;;;;;;;;6.42;46.57;101967.75;4982688;28;6792;-73
2023/01/28 10:24:40;;;;;;;;;;;;;;;6.49;46.13;101970.09;4964848;28;7015;-73
2023/01/28 10:27:20;;;;;;;;;;;;;;;6.55;46.72;101968.84;4985101;28;7145;-73
2023/01/28 10:29:49;;;;;;;;;;;;;;;6.63;46.57;101967.88;4990087;28;6801;-73
2023/01/28 10:32:33;;;;;;;;;;;;;;;6.73;45.57;101970.47;4977616;28;6871;-73
2023/01/28 10:35:02;;;;;;;;;;;;;;;6.81;46.05;101976.28;4983315;28;8806;-73
2023/01/28 10:37:35;;;;;;;;;;;;;;;6.85;45.98;101963.03;4983348;28;6800;-73
2023/01/28 10:40:02;;;;;;;;;;;;;;;6.91;45.71;101967.78;4969445;28;6980;-73
2023/01/28 10:42:33;;;;;;;;;;;;;;;6.95;45.18;101957.97;4987539;28;6788;-73
2023/01/28 10:45:18;;;;;;;;;;;;;;;6.98;45.97;101967.56;4988165;28;6792;-73
2023/01/28 10:48:19;;;;;;;;;;;;;;;7.01;45.64;101969.50;4983977;28;7015;-73
2023/01/28 10:50:55;;;;;;;;;;;;;;;7.04;45.66;101960.44;4985861;28;6812;-73
2023/01/28 10:53:37;;;;;;;;;;;;;;;7.07;45.45;101962.34;4983393;28;6804;-73
2023/01/28 10:56:24;;;;;;;;;;;;;;;7.12;45.70;101976.41;4990409;28;6827;-73
2023/01/28 10:58:59;;;;;;;;;;;;;;;7.16;45.04;101967.38;4985839;28;6824;-73
2023/01/28 11:01:44;;;;;;;;;;;;;;;7.19;45.34;101975.28;5003517;28;7007;-73
2023/01/28 11:04:29;;;;;;;;;;;;;;;7.21;44.77;101972.13;4985529;28;6804;-73
2023/01/28 11:07:15;;;;;;;;;;;;;;;7.24;45.28;101979.13;4987641;28;6812;-73
2023/01/28 11:09:46;;;;;;;;;;;;;;;7.23;44.95;101973.16;4989995;28;8115;-73
2023/01/28 11:12:25;;;;;;;;;;;;;;;7.21;45.35;101976.31;4964444;28;6993;-73
2023/01/28 11:15:02;;;;;;;;;;;;;;;7.21;44.84;101981.41;4970220;28;8248;-73
2023/01/28 11:17:37;;;;;;;;;;;;;;;7.22;44.44;101973.00;4988990;28;6896;-73
2023/01/28 11:20:19;;;;;;;;;;;;;;;7.25;45.16;101977.47;4985507;28;6796;-73
2023/01/28 11:22:47;;;;;;;;;;;;;;;7.29;45.19;101982.97;4972953;28;6808;-73
2023/01/28 11:25:25;;;;;;;;;;;;;;;7.33;44.76;101974.81;4983428;28;7438;-73
2023/01/28 11:27:53;;;;;;;;;;;;;;;7.35;43.98;101982.63;4995222;28;7062;-73
2023/01/28 11:30:28;;;;;;;;;;;;;;;7.31;44.48;101984.00;4981137;28;11711;-73
2023/01/28 11:33:23;;;;;;;;;;;;;;;7.24;44.72;101986.78;4986446;28;6808;-73
2023/01/28 11:35:55;;;;;;;;;;;;;;;7.17;44.50;101979.38;4988807;28;7011;-73
2023/01/28 11:38:24;;;;;;;;;;;;;;;7.12;44.91;101981.53;4983047;28;6991;-73
2023/01/28 11:40:56;;;;;;;;;;;;;;;7.10;44.24;101980.50;4984500;28;7129;-73
2023/01/28 11:43:30;;;;;;;;;;;;;;;7.11;45.05;101973.72;4988021;28;7956;-73
2023/01/28 11:46:14;;;;;;;;;;;;;;;7.08;45.06;101956.50;4988096;28;6807;-73
2023/01/28 11:49:23;;;;;;;;;;;;;;;7.07;44.63;101955.63;4985834;28;6820;-73
2023/01/28 11:52:30;;;;;;;;;;;;;;;7.07;45.40;101960.72;4986616;28;6864;-73
2023/01/28 11:55:24;;;;;;;;;;;;;;;7.08;44.37;101964.16;4955322;28;6816;-73
2023/01/28 11:58:18;;;;;;;;;;;;;;;7.08;44.37;101956.50;4995232;28;7336;-73
2023/01/28 12:00:50;;;;;;;;;;;;;;;7.07;44.29;101950.53;4979760;28;6888;-73
2023/01/28 12:04:06;;;;;;;;;;;;;;;7.11;45.01;101955.88;4986722;28;7348;-73
2023/01/28 12:06:59;;;;;;;;;;;;;;;7.08;44.76;101951.41;4994088;28;6992;-73
2023/01/28 12:09:47;;;;;;;;;;;;;;;7.09;45.29;101945.53;4984134;28;6928;-73
2023/01/28 12:12:38;;;;;;;;;;;;;;;7.08;44.45;101952.31;4986463;28;6824;-73
2023/01/28 12:15:28;;;;;;;;;;;;;;;7.02;44.45;101950.88;5002970;28;7023;-73
2023/01/28 12:18:21;;;;;;;;;;;;;;;6.96;44.33;101953.78;4986435;28;7697;-73
2023/01/28 12:21:17;;;;;;;;;;;;;;;6.91;45.21;101952.47;4976154;28;8235;-73
2023/01/28 12:24:23;;;;;;;;;;;;;;;6.85;44.94;101952.84;4983385;28;6812;-73
2023/01/28 12:27:29;;;;;;;;;;;;;;;6.80;44.82;101957.53;4987201;28;6824;-73
2023/01/28 12:30:23;;;;;;;;;;;;;;;6.77;44.87;101956.34;4977869;28;6815;-73
2023/01/28 12:33:14;;;;;;;;;;;;;;;6.74;44.46;101944.22;4979555;28;11154;-73
2023/01/28 12:36:08;;;;;;;;;;;;;;;6.72;45.19;101938.13;4985644;28;9797;-73
2023/01/28 12:38:56;;;;;;;;;;;;;;;6.74;45.49;101938.25;4983905;28;6812;-73
2023/01/28 12:41:34;;;;;;;;;;;;;;;6.75;44.92;101924.75;4983202;28;6824;-73
2023/01/28 12:44:08;;;;;;;;;;;;;;;6.77;44.88;101931.78;4985720;28;6812;-73
2023/01/28 12:47:08;;;;;;;;;;;;;;;6.78;45.00;101919.91;4984830;28;6796;-73
2023/01/28 12:49:45;;;;;;;;;;;;;;;6.81;45.19;101918.53;4983960;28;7240;-73
2023/01/28 12:52:27;;;;;;;;;;;;;;;6.83;44.77;101912.69;4979158;28;7313;-73
2023/01/28 12:55:19;;;;;;;;;;;;;;;6.87;44.64;101894.38;4988884;28;6985;-73
2023/01/28 12:57:47;;;;;;;;;;;;;;;6.90;44.65;101880.19;4986106;28;7406;-73
2023/01/28 13:00:31;;;;;;;;;;;;;;;7.01;45.36;101900.66;4974843;28;6993;-73
2023/01/28 13:03:50;;;;;;;;;;;;;;;7.13;44.39;101903.34;4981011;28;7086;-73
2023/01/28 13:06:33;;;;;;;;;;;;;;;7.20;45.06;101888.72;4984508;28;7295;-74
2023/01/28 13:09:12;;;;;;;;;;;;;;;7.31;44.72;101878.53;4977336;28;6816;-73
2023/01/28 13:11:39;;;;;;;;;;;;;;;7.40;44.87;101869.13;4978707;28;6820;-73
2023/01/28 13:14:06;;;;;;;;;;;;;;;7.49;44.16;101864.78;4975184;28;6800;-73
2023/01/28 13:16:33;;;;;;;;;;;;;;;7.60;43.96;101847.81;4978484;28;6803;-73
2023/01/28 13:19:16;;;;;;;;;;;;;;;7.76;43.93;101841.44;4979109;28;7029;-73
2023/01/28 13:21:43;;;;;;;;;;;;;;;7.91;44.11;101829.91;4984757;28;7003;-73
2023/01/28 13:24:08;;;;;;;;;;;;;;;8.10;43.71;101831.41;4980680;28;7730;-73
2023/01/28 13:26:55;;;;;;;;;;;;;;;8.29;43.37;101850.78;4992007;28;6972;-73
2023/01/28 13:29:28;;;;;;;;;;;;;;;8.47;43.01;101867.59;4986523;28;7318;-74
2023/01/28 13:31:59;;;;;;;;;;;;;;;8.59;42.43;101854.03;4980231;28;9519;-73
2023/01/28 13:34:39;;;;;;;;;;;;;;;8.61;42.89;101861.06;4997596;28;7230;-73
2023/01/28 13:37:37;;;;;;;;;;;;;;;8.60;42.41;101877.16;4981709;28;7419;-73
2023/01/28 13:40:11;;;;;;;;;;;;;;;8.63;42.38;101889.31;4978795;28;9415;-73
2023/01/28 13:42:38;;;;;;;;;;;;;;;8.64;42.08;101880.88;4988202;28;7016;-73
2023/01/28 13:45:22;;;;;;;;;;;;;;;8.65;41.94;101889.44;4979675;28;6883;-73
2023/01/28 13:48:00;;;;;;;;;;;;;;;8.58;42.07;101890.59;4997798;28;6816;-73
2023/01/28 13:50:39;;;;;;;;;;;;;;;8.45;41.52;101901.44;4973773;28;7033;-73
2023/01/28 13:53:47;;;;;;;;;;;;;;;8.26;41.81;101901.63;4982439;28;6807;-73
2023/01/28 13:56:29;;;;;;;;;;;;;;;8.02;41.27;101899.75;4980917;28;7213;-73
2023/01/28 13:59:22;;;;;;;;;;;;;;;7.88;41.17;101910.50;4973810;28;6834;-73
2023/01/28 14:02:31;;;;;;;;;;;;;;;7.76;41.99;101910.34;4964342;28;7051;-73